createdAt,value
2019-03-24T00:00:27.467Z,8.96
2019-03-24T00:01:27.561Z,8.95
2019-03-24T00:02:27.585Z,8.94
2019-03-24T00:03:27.464Z,8.93
2019-03-24T00:04:27.459Z,8.92
2019-03-24T00:05:27.517Z,8.89
2019-03-24T00:06:27.917Z,8.85
2019-03-24T00:07:27.686Z,8.84
2019-03-24T00:08:27.483Z,8.81
2019-03-24T00:09:27.454Z,8.77
2019-03-24T00:10:27.477Z,8.76
2019-03-24T00:11:27.451Z,8.72
2019-03-24T00:12:27.513Z,8.69
2019-03-24T00:13:27.437Z,8.65
2019-03-24T00:14:27.442Z,8.62
2019-03-24T00:15:27.446Z,8.6
2019-03-24T00:16:27.422Z,8.58
2019-03-24T00:17:27.448Z,8.55
2019-03-24T00:18:27.454Z,8.53
2019-03-24T00:19:27.500Z,8.5
2019-03-24T00:20:27.430Z,8.49
2019-03-24T00:21:27.431Z,8.47
2019-03-24T00:22:27.476Z,8.43
2019-03-24T00:23:27.419Z,8.37
2019-03-24T00:24:27.422Z,8.34
2019-03-24T00:25:27.461Z,8.34
2019-03-24T00:26:27.443Z,8.3
2019-03-24T00:27:27.392Z,8.28
2019-03-24T00:28:27.525Z,8.28
2019-03-24T00:29:27.501Z,8.29
2019-03-24T00:30:27.438Z,8.27
2019-03-24T00:31:27.482Z,8.24
2019-03-24T00:32:27.507Z,8.16
2019-03-24T00:33:27.480Z,8.16
2019-03-24T00:34:27.440Z,8.14
2019-03-24T00:35:27.400Z,8.14
2019-03-24T00:36:27.409Z,8.1
2019-03-24T00:37:27.416Z,8.07
2019-03-24T00:38:27.405Z,8.07
2019-03-24T00:39:27.402Z,8.05
2019-03-24T00:40:27.404Z,8.04
2019-03-24T00:41:27.388Z,8.03
2019-03-24T00:42:27.471Z,8.03
2019-03-24T00:43:27.421Z,7.99
2019-03-24T00:44:27.407Z,7.99
2019-03-24T00:45:37.565Z,7.99
2019-03-24T00:46:27.437Z,7.97
2019-03-24T00:47:27.414Z,7.97
2019-03-24T00:48:27.417Z,7.97
2019-03-24T00:49:27.413Z,7.97
2019-03-24T00:50:27.588Z,7.96
2019-03-24T00:51:27.466Z,7.95
2019-03-24T00:52:27.454Z,7.93
2019-03-24T00:53:27.380Z,7.92
2019-03-24T00:54:27.395Z,7.9
2019-03-24T00:55:27.429Z,7.89
2019-03-24T00:56:27.396Z,7.86
2019-03-24T00:57:27.358Z,7.86
2019-03-24T00:58:27.343Z,7.85
2019-03-24T00:59:29.450Z,7.85
2019-03-24T01:00:27.397Z,7.85
2019-03-24T01:01:27.437Z,7.84
2019-03-24T01:02:27.398Z,7.83
2019-03-24T01:03:27.506Z,7.81
2019-03-24T01:04:27.376Z,7.79
2019-03-24T01:05:27.383Z,7.8
2019-03-24T01:06:27.404Z,7.79
2019-03-24T01:07:27.395Z,7.73
2019-03-24T01:08:27.400Z,7.72
2019-03-24T01:09:27.388Z,7.71
2019-03-24T01:10:27.403Z,7.7
2019-03-24T01:11:27.393Z,7.7
2019-03-24T01:12:27.466Z,7.68
2019-03-24T01:13:27.352Z,7.66
2019-03-24T01:14:27.367Z,7.65
2019-03-24T01:15:27.334Z,7.62
2019-03-24T01:16:27.360Z,7.62
2019-03-24T01:17:27.388Z,7.61
2019-03-24T01:18:27.384Z,7.65
2019-03-24T01:19:27.384Z,7.65
2019-03-24T01:20:27.398Z,7.65
2019-03-24T01:21:27.381Z,7.65
2019-03-24T01:22:27.352Z,7.64
2019-03-24T01:23:27.348Z,7.63
2019-03-24T01:24:27.364Z,7.61
2019-03-24T01:25:27.326Z,7.59
2019-03-24T01:26:27.343Z,7.59
2019-03-24T01:27:27.371Z,7.57
2019-03-24T01:28:27.347Z,7.54
2019-03-24T01:29:27.370Z,7.54
2019-03-24T01:30:27.364Z,7.54
2019-03-24T01:31:27.349Z,7.54
2019-03-24T01:32:27.309Z,7.54
2019-03-24T01:33:27.580Z,7.53
2019-03-24T01:34:27.434Z,7.53
2019-03-24T01:35:27.317Z,7.52
2019-03-24T01:36:27.299Z,7.49
2019-03-24T01:37:27.292Z,7.5
2019-03-24T01:38:27.322Z,7.48
2019-03-24T01:39:27.380Z,7.47
2019-03-24T01:40:27.356Z,7.43
2019-03-24T01:41:27.314Z,7.43
2019-03-24T01:42:27.312Z,7.4
2019-03-24T01:43:27.387Z,7.39
2019-03-24T01:44:27.312Z,7.38
2019-03-24T01:45:27.292Z,7.36
2019-03-24T01:46:27.292Z,7.33
2019-03-24T01:47:27.307Z,7.33
2019-03-24T01:48:27.346Z,7.29
2019-03-24T01:49:27.318Z,7.26
2019-03-24T01:50:27.308Z,7.24
2019-03-24T01:51:27.312Z,7.23
2019-03-24T01:52:27.293Z,7.21
2019-03-24T01:53:27.330Z,7.17
2019-03-24T01:54:27.331Z,7.14
2019-03-24T01:55:27.598Z,7.1
2019-03-24T01:56:27.526Z,7.07
2019-03-24T01:57:27.306Z,7.03
2019-03-24T01:58:27.330Z,7.03
2019-03-24T01:59:27.346Z,6.99
2019-03-24T02:00:27.286Z,6.97
2019-03-24T02:01:27.300Z,6.93
2019-03-24T02:02:27.303Z,6.91
2019-03-24T02:03:27.259Z,6.93
2019-03-24T02:04:27.262Z,6.91
2019-03-24T02:05:27.330Z,6.82
2019-03-24T02:06:27.288Z,6.74
2019-03-24T02:07:27.260Z,6.8
2019-03-24T02:08:27.332Z,6.8
2019-03-24T02:09:27.310Z,6.66
2019-03-24T02:10:27.253Z,6.72
2019-03-24T02:11:27.332Z,6.71
2019-03-24T02:12:27.360Z,6.71
2019-03-24T02:13:27.257Z,6.69
2019-03-24T02:14:27.244Z,6.71
2019-03-24T02:15:27.273Z,6.7
2019-03-24T02:16:27.249Z,6.7
2019-03-24T02:17:27.436Z,6.71
2019-03-24T02:18:27.293Z,6.72
2019-03-24T02:19:27.278Z,6.72
2019-03-24T02:20:27.361Z,6.73
2019-03-24T02:21:27.261Z,6.73
2019-03-24T02:22:27.273Z,6.77
2019-03-24T02:23:27.266Z,6.74
2019-03-24T02:24:27.294Z,6.76
2019-03-24T02:25:27.245Z,6.75
2019-03-24T02:26:27.264Z,6.73
2019-03-24T02:27:27.252Z,6.77
2019-03-24T02:28:27.229Z,6.74
2019-03-24T02:29:27.246Z,6.72
2019-03-24T02:30:27.295Z,6.72
2019-03-24T02:31:27.242Z,6.72
2019-03-24T02:32:27.275Z,6.74
2019-03-24T02:33:27.300Z,6.74
2019-03-24T02:34:27.297Z,6.75
2019-03-24T02:35:27.243Z,6.75
2019-03-24T02:36:27.278Z,6.73
2019-03-24T02:37:27.246Z,6.73
2019-03-24T02:38:27.697Z,6.74
2019-03-24T02:39:27.282Z,6.74
2019-03-24T02:40:27.214Z,6.73
2019-03-24T02:41:27.457Z,6.71
2019-03-24T02:42:27.236Z,6.7
2019-03-24T02:43:27.211Z,6.68
2019-03-24T02:44:27.265Z,6.65
2019-03-24T02:45:27.233Z,6.65
2019-03-24T02:46:27.216Z,6.62
2019-03-24T02:47:27.268Z,6.62
2019-03-24T02:48:27.245Z,6.56
2019-03-24T02:49:27.181Z,6.58
2019-03-24T02:50:27.248Z,6.53
2019-03-24T02:51:27.247Z,6.52
2019-03-24T02:52:27.217Z,6.52
2019-03-24T02:53:27.233Z,6.51
2019-03-24T02:54:27.258Z,6.52
2019-03-24T02:55:27.204Z,6.48
2019-03-24T02:56:27.200Z,6.49
2019-03-24T02:57:27.288Z,6.46
2019-03-24T02:58:27.277Z,6.47
2019-03-24T02:59:27.354Z,6.47
2019-03-24T03:00:27.679Z,6.46
2019-03-24T03:01:27.320Z,6.44
2019-03-24T03:02:27.269Z,6.43
2019-03-24T03:03:27.246Z,6.41
2019-03-24T03:04:27.243Z,6.39
2019-03-24T03:05:27.290Z,6.28
2019-03-24T03:06:27.286Z,6.31
2019-03-24T03:07:27.289Z,6.29
2019-03-24T03:08:27.218Z,6.28
2019-03-24T03:09:27.289Z,6.28
2019-03-24T03:10:27.241Z,6.26
2019-03-24T03:11:27.248Z,6.23
2019-03-24T03:12:27.276Z,6.23
2019-03-24T03:13:27.174Z,6.22
2019-03-24T03:14:27.284Z,6.19
2019-03-24T03:15:27.262Z,6.2
2019-03-24T03:16:39.647Z,6.17
2019-03-24T03:17:27.212Z,6.16
2019-03-24T03:18:27.193Z,6.16
2019-03-24T03:19:27.225Z,6.16
2019-03-24T03:20:28.190Z,6.16
2019-03-24T03:21:27.197Z,6.16
2019-03-24T03:22:27.390Z,6.16
2019-03-24T03:23:27.225Z,6.12
2019-03-24T03:24:27.275Z,6.11
2019-03-24T03:25:27.198Z,6.13
2019-03-24T03:26:27.183Z,6.1
2019-03-24T03:27:27.190Z,6.1
2019-03-24T03:28:27.220Z,6.11
2019-03-24T03:29:27.173Z,6.09
2019-03-24T03:30:27.224Z,6.09
2019-03-24T03:31:27.551Z,6.1
2019-03-24T03:32:27.267Z,6.09
2019-03-24T03:33:27.301Z,6.04
2019-03-24T03:34:27.361Z,6.05
2019-03-24T03:35:27.323Z,6.07
2019-03-24T03:36:27.324Z,6.05
2019-03-24T03:37:27.280Z,6.04
2019-03-24T03:38:27.227Z,6.03
2019-03-24T03:39:27.178Z,6.06
2019-03-24T03:40:27.253Z,6.05
2019-03-24T03:41:27.232Z,6.03
2019-03-24T03:42:27.193Z,6.01
2019-03-24T03:43:27.158Z,6.01
2019-03-24T03:44:27.390Z,6
2019-03-24T03:45:27.253Z,6
2019-03-24T03:46:27.243Z,5.97
2019-03-24T03:47:27.230Z,5.96
2019-03-24T03:48:27.223Z,5.95
2019-03-24T03:49:27.162Z,5.93
2019-03-24T03:50:27.198Z,5.92
2019-03-24T03:51:27.156Z,5.94
2019-03-24T03:52:27.198Z,5.94
2019-03-24T03:53:27.131Z,5.96
2019-03-24T03:54:27.168Z,5.96
2019-03-24T03:55:27.155Z,5.96
2019-03-24T03:56:27.143Z,5.95
2019-03-24T03:57:27.155Z,5.94
2019-03-24T03:58:27.142Z,5.93
2019-03-24T03:59:27.196Z,5.91
2019-03-24T04:00:27.120Z,5.89
2019-03-24T04:01:27.185Z,5.88
2019-03-24T04:02:27.188Z,5.9
2019-03-24T04:03:27.170Z,5.89
2019-03-24T04:04:27.340Z,5.88
2019-03-24T04:05:27.108Z,5.87
2019-03-24T04:06:27.143Z,5.85
2019-03-24T04:07:27.138Z,5.82
2019-03-24T04:08:27.121Z,5.77
2019-03-24T04:09:27.181Z,5.77
2019-03-24T04:10:27.124Z,5.75
2019-03-24T04:11:27.127Z,5.73
2019-03-24T04:12:27.271Z,5.73
2019-03-24T04:13:27.126Z,5.72
2019-03-24T04:14:27.121Z,5.71
2019-03-24T04:15:27.181Z,5.7
2019-03-24T04:16:27.198Z,5.67
2019-03-24T04:17:27.095Z,5.62
2019-03-24T04:18:27.118Z,5.6
2019-03-24T04:19:27.121Z,5.61
2019-03-24T04:20:27.153Z,5.59
2019-03-24T04:21:27.127Z,5.58
2019-03-24T04:22:27.150Z,5.58
2019-03-24T04:23:27.131Z,5.57
2019-03-24T04:24:27.107Z,5.57
2019-03-24T04:25:27.399Z,5.56
2019-03-24T04:26:27.421Z,5.57
2019-03-24T04:27:27.115Z,5.55
2019-03-24T04:28:27.154Z,5.54
2019-03-24T04:29:27.146Z,5.51
2019-03-24T04:30:27.122Z,5.51
2019-03-24T04:31:27.128Z,5.48
2019-03-24T04:32:27.105Z,5.48
2019-03-24T04:33:27.129Z,5.47
2019-03-24T04:34:27.149Z,5.47
2019-03-24T04:35:27.169Z,5.46
2019-03-24T04:36:27.097Z,5.46
2019-03-24T04:37:27.104Z,5.46
2019-03-24T04:38:27.147Z,5.47
2019-03-24T04:39:27.116Z,5.5
2019-03-24T04:40:27.082Z,5.43
2019-03-24T04:41:27.091Z,5.42
2019-03-24T04:42:27.099Z,5.4
2019-03-24T04:43:27.125Z,5.38
2019-03-24T04:44:27.095Z,5.38
2019-03-24T04:45:27.063Z,5.38
2019-03-24T04:46:27.105Z,5.38
2019-03-24T04:47:27.113Z,5.35
2019-03-24T04:48:27.062Z,5.35
2019-03-24T04:49:27.089Z,5.36
2019-03-24T04:50:27.135Z,5.33
2019-03-24T04:51:27.039Z,5.29
2019-03-24T04:52:27.066Z,5.27
2019-03-24T04:53:27.099Z,5.25
2019-03-24T04:54:27.088Z,5.24
2019-03-24T04:55:27.113Z,5.16
2019-03-24T04:56:27.035Z,5.13
2019-03-24T04:57:27.115Z,5.12
2019-03-24T04:58:27.067Z,5.12
2019-03-24T04:59:27.044Z,5.15
2019-03-24T05:00:27.072Z,5.11
2019-03-24T05:01:27.037Z,5.1
2019-03-24T05:02:27.114Z,5.11
2019-03-24T05:03:27.056Z,5.12
2019-03-24T05:04:27.032Z,5.14
2019-03-24T05:05:27.037Z,5.15
2019-03-24T05:06:27.353Z,5.15
2019-03-24T05:07:27.017Z,5.17
2019-03-24T05:08:27.367Z,5.2
2019-03-24T05:09:27.064Z,5.21
2019-03-24T05:10:27.100Z,5.19
2019-03-24T05:11:27.035Z,5.2
2019-03-24T05:12:27.087Z,5.2
2019-03-24T05:13:26.996Z,5.18
2019-03-24T05:14:27.042Z,5.13
2019-03-24T05:15:27.059Z,5.08
2019-03-24T05:16:27.016Z,5.05
2019-03-24T05:17:27.760Z,5.07
2019-03-24T05:18:27.024Z,5.05
2019-03-24T05:19:27.031Z,5.05
2019-03-24T05:20:27.008Z,5.03
2019-03-24T05:21:27.045Z,5.01
2019-03-24T05:22:27.069Z,5.01
2019-03-24T05:23:27.028Z,5
2019-03-24T05:24:27.068Z,5.01
2019-03-24T05:25:27.127Z,4.99
2019-03-24T05:26:27.053Z,5
2019-03-24T05:27:27.014Z,4.98
2019-03-24T05:28:27.044Z,5.01
2019-03-24T05:29:27.023Z,4.97
2019-03-24T05:30:27.040Z,4.96
2019-03-24T05:31:27.016Z,4.97
2019-03-24T05:32:26.970Z,4.95
2019-03-24T05:33:26.959Z,4.97
2019-03-24T05:34:27.516Z,4.93
2019-03-24T05:35:27.047Z,4.96
2019-03-24T05:36:26.992Z,4.97
2019-03-24T05:37:27.062Z,4.97
2019-03-24T05:38:27.014Z,4.97
2019-03-24T05:39:27.009Z,4.98
2019-03-24T05:40:27.009Z,4.97
2019-03-24T05:41:27.001Z,4.97
2019-03-24T05:42:26.975Z,4.96
2019-03-24T05:43:26.979Z,4.95
2019-03-24T05:44:26.966Z,4.95
2019-03-24T05:45:26.962Z,4.95
2019-03-24T05:46:27.023Z,4.96
2019-03-24T05:47:37.800Z,4.96
2019-03-24T05:48:26.985Z,4.99
2019-03-24T05:49:26.991Z,4.97
2019-03-24T05:50:26.971Z,5.01
2019-03-24T05:51:27.049Z,5.02
2019-03-24T05:52:27.954Z,5.01
2019-03-24T05:53:26.969Z,4.99
2019-03-24T05:54:26.962Z,4.96
2019-03-24T05:55:26.992Z,4.99
2019-03-24T05:56:26.938Z,4.95
2019-03-24T05:57:26.947Z,4.96
2019-03-24T05:58:26.987Z,4.95
2019-03-24T05:59:26.933Z,4.96
2019-03-24T06:00:26.942Z,4.96
2019-03-24T06:01:26.932Z,4.97
2019-03-24T06:02:26.994Z,4.98
2019-03-24T06:03:27.062Z,4.99
2019-03-24T06:04:26.977Z,4.99
2019-03-24T06:05:26.950Z,5.01
2019-03-24T06:06:26.953Z,5
2019-03-24T06:07:26.901Z,5.01
2019-03-24T06:08:26.922Z,5
2019-03-24T06:09:26.971Z,5.01
2019-03-24T06:10:26.922Z,5.02
2019-03-24T06:11:26.921Z,5.02
2019-03-24T06:12:26.895Z,5.03
2019-03-24T06:13:27.183Z,5.05
2019-03-24T06:14:27.669Z,5.06
2019-03-24T06:15:26.940Z,5.09
2019-03-24T06:16:26.965Z,5.09
2019-03-24T06:17:26.971Z,5.1
2019-03-24T06:18:26.891Z,5.13
2019-03-24T06:19:26.961Z,5.11
2019-03-24T06:20:26.957Z,5.15
2019-03-24T06:21:26.932Z,5.16
2019-03-24T06:22:26.894Z,5.2
2019-03-24T06:23:26.892Z,5.21
2019-03-24T06:24:26.897Z,5.24
2019-03-24T06:25:26.986Z,5.27
2019-03-24T06:26:26.901Z,5.3
2019-03-24T06:27:26.945Z,5.32
2019-03-24T06:28:26.936Z,5.36
2019-03-24T06:29:26.868Z,5.38
2019-03-24T06:30:26.886Z,5.42
2019-03-24T06:31:26.927Z,5.44
2019-03-24T06:32:26.904Z,5.44
2019-03-24T06:33:26.939Z,5.47
2019-03-24T06:34:26.929Z,5.48
2019-03-24T06:35:27.206Z,5.49
2019-03-24T06:36:26.932Z,5.53
2019-03-24T06:37:26.885Z,5.53
2019-03-24T06:38:26.892Z,5.55
2019-03-24T06:39:26.902Z,5.55
2019-03-24T06:40:26.926Z,5.59
2019-03-24T06:41:26.901Z,5.59
2019-03-24T06:42:26.862Z,5.64
2019-03-24T06:43:26.868Z,5.65
2019-03-24T06:44:26.905Z,5.64
2019-03-24T06:45:29.303Z,5.67
2019-03-24T06:46:26.920Z,5.68
2019-03-24T06:47:26.857Z,5.72
2019-03-24T06:48:26.907Z,5.72
2019-03-24T06:49:26.861Z,5.7
2019-03-24T06:50:26.931Z,5.66
2019-03-24T06:51:26.840Z,5.65
2019-03-24T06:52:26.933Z,5.68
2019-03-24T06:53:26.841Z,5.72
2019-03-24T06:54:26.837Z,5.73
2019-03-24T06:55:26.855Z,5.73
2019-03-24T06:56:26.934Z,5.73
2019-03-24T06:57:26.933Z,5.75
2019-03-24T06:58:26.843Z,5.76
2019-03-24T06:59:26.881Z,5.73
2019-03-24T07:00:26.907Z,5.7
2019-03-24T07:01:26.880Z,5.7
2019-03-24T07:02:26.830Z,5.65
2019-03-24T07:03:26.860Z,5.64
2019-03-24T07:04:26.892Z,5.67
2019-03-24T07:05:26.932Z,5.68
2019-03-24T07:06:26.849Z,5.72
2019-03-24T07:07:26.854Z,5.74
2019-03-24T07:08:26.856Z,5.79
2019-03-24T07:09:26.919Z,5.8
2019-03-24T07:10:26.866Z,5.85
2019-03-24T07:11:26.832Z,5.87
2019-03-24T07:12:26.841Z,5.91
2019-03-24T07:13:26.842Z,5.93
2019-03-24T07:14:26.830Z,5.97
2019-03-24T07:15:26.827Z,6
2019-03-24T07:16:26.825Z,6.02
2019-03-24T07:17:26.852Z,6.06
2019-03-24T07:18:26.868Z,6.11
2019-03-24T07:19:26.844Z,6.12
2019-03-24T07:20:26.865Z,6.13
2019-03-24T07:21:26.899Z,6.13
2019-03-24T07:22:26.803Z,6.18
2019-03-24T07:23:26.817Z,6.18
2019-03-24T07:24:26.858Z,6.06
2019-03-24T07:25:26.837Z,6.04
2019-03-24T07:26:26.832Z,6.07
2019-03-24T07:27:26.882Z,6.15
2019-03-24T07:28:26.818Z,6.15
2019-03-24T07:29:26.811Z,6.15
2019-03-24T07:30:26.793Z,6.15
2019-03-24T07:31:26.858Z,6.16
2019-03-24T07:32:26.849Z,6.18
2019-03-24T07:33:26.785Z,6.17
2019-03-24T07:34:26.810Z,6.23
2019-03-24T07:35:26.773Z,6.23
2019-03-24T07:36:26.940Z,6.27
2019-03-24T07:37:26.778Z,6.28
2019-03-24T07:38:26.854Z,6.31
2019-03-24T07:39:26.782Z,6.29
2019-03-24T07:40:28.630Z,6.37
2019-03-24T07:41:26.855Z,6.37
2019-03-24T07:42:26.782Z,6.42
2019-03-24T07:43:26.771Z,6.44
2019-03-24T07:44:26.790Z,6.48
2019-03-24T07:45:26.769Z,6.51
2019-03-24T07:46:26.776Z,6.56
2019-03-24T07:47:26.825Z,6.52
2019-03-24T07:48:26.869Z,6.43
2019-03-24T07:49:26.793Z,6.49
2019-03-24T07:50:26.806Z,6.54
2019-03-24T07:51:26.761Z,6.56
2019-03-24T07:52:26.767Z,6.62
2019-03-24T07:53:26.842Z,6.59
2019-03-24T07:54:26.823Z,6.67
2019-03-24T07:55:26.786Z,6.72
2019-03-24T07:56:26.775Z,6.75
2019-03-24T07:57:26.792Z,6.79
2019-03-24T07:58:26.746Z,6.85
2019-03-24T07:59:26.757Z,6.87
2019-03-24T08:00:26.826Z,6.9
2019-03-24T08:01:26.782Z,6.94
2019-03-24T08:02:26.810Z,6.97
2019-03-24T08:03:26.792Z,7.02
2019-03-24T08:04:26.774Z,7.06
2019-03-24T08:05:26.782Z,7.06
2019-03-24T08:06:26.789Z,7.11
2019-03-24T08:07:26.778Z,7.03
2019-03-24T08:08:26.847Z,7.08
2019-03-24T08:09:26.716Z,7.05
2019-03-24T08:10:26.854Z,7.14
2019-03-24T08:11:26.739Z,7.19
2019-03-24T08:12:26.745Z,7.21
2019-03-24T08:13:26.777Z,7.23
2019-03-24T08:14:26.759Z,7.23
2019-03-24T08:15:26.838Z,7.23
2019-03-24T08:16:26.767Z,7.26
2019-03-24T08:17:26.737Z,7.32
2019-03-24T08:18:30.614Z,7.36
2019-03-24T08:19:26.746Z,7.41
2019-03-24T08:20:26.775Z,7.47
2019-03-24T08:21:26.810Z,7.49
2019-03-24T08:22:26.728Z,7.57
2019-03-24T08:23:26.873Z,7.62
2019-03-24T08:24:26.748Z,7.69
2019-03-24T08:25:26.709Z,7.75
2019-03-24T08:26:26.737Z,7.78
2019-03-24T08:27:26.711Z,7.83
2019-03-24T08:28:26.983Z,7.8
2019-03-24T08:29:26.732Z,7.79
2019-03-24T08:30:29.096Z,7.84
2019-03-24T08:31:26.710Z,7.84
2019-03-24T08:32:26.729Z,7.87
2019-03-24T08:33:26.803Z,7.91
2019-03-24T08:34:26.899Z,7.93
2019-03-24T08:35:26.780Z,7.99
2019-03-24T08:36:26.722Z,8
2019-03-24T08:37:26.762Z,8.01
2019-03-24T08:38:29.720Z,8.1
2019-03-24T08:39:26.779Z,8.11
2019-03-24T08:40:26.879Z,8.16
2019-03-24T08:41:26.692Z,8.17
2019-03-24T08:42:26.730Z,8.16
2019-03-24T08:43:26.725Z,8.21
2019-03-24T08:44:26.721Z,8.22
2019-03-24T08:45:26.781Z,8.28
2019-03-24T08:46:26.686Z,8.33
2019-03-24T08:47:26.757Z,8.35
2019-03-24T08:48:26.669Z,8.38
2019-03-24T08:49:26.689Z,8.46
2019-03-24T08:50:26.696Z,8.5
2019-03-24T08:51:26.674Z,8.55
2019-03-24T08:52:26.724Z,8.56
2019-03-24T08:53:26.739Z,8.6
2019-03-24T08:54:26.735Z,8.66
2019-03-24T08:55:26.750Z,8.67
2019-03-24T08:56:26.733Z,8.71
2019-03-24T08:57:26.713Z,8.75
2019-03-24T08:58:26.708Z,8.8
2019-03-24T08:59:27.693Z,8.86
2019-03-24T09:00:31.387Z,8.9
2019-03-24T09:01:26.660Z,8.92
2019-03-24T09:02:26.672Z,8.95
2019-03-24T09:03:26.696Z,8.97
2019-03-24T09:04:26.681Z,9.04
2019-03-24T09:05:26.679Z,9.07
2019-03-24T09:06:26.657Z,9.16
2019-03-24T09:07:26.825Z,9.19
2019-03-24T09:08:26.659Z,9.23
2019-03-24T09:09:26.662Z,9.31
2019-03-24T09:10:26.690Z,9.34
2019-03-24T09:11:32.023Z,9.39
2019-03-24T09:12:31.561Z,9.46
2019-03-24T09:13:26.695Z,9.52
2019-03-24T09:14:26.652Z,9.6
2019-03-24T09:15:26.732Z,9.66
2019-03-24T09:16:26.789Z,9.7
2019-03-24T09:17:26.894Z,9.74
2019-03-24T09:18:26.694Z,9.8
2019-03-24T09:19:26.659Z,9.85
2019-03-24T09:20:26.669Z,9.89
2019-03-24T09:21:26.721Z,9.91
2019-03-24T09:22:26.700Z,9.99
2019-03-24T09:23:26.707Z,10
2019-03-24T09:24:26.687Z,10.06
2019-03-24T09:25:27.228Z,10.11
2019-03-24T09:26:26.689Z,10.12
2019-03-24T09:27:26.738Z,10.11
2019-03-24T09:28:26.689Z,10.14
2019-03-24T09:29:26.934Z,10.16
2019-03-24T09:30:26.820Z,10.21
2019-03-24T09:31:26.678Z,10.23
2019-03-24T09:32:26.755Z,10.28
2019-03-24T09:33:26.641Z,10.34
2019-03-24T09:34:26.661Z,10.35
2019-03-24T09:35:26.686Z,10.37
2019-03-24T09:36:26.812Z,10.37
2019-03-24T09:37:26.697Z,10.42
2019-03-24T09:38:26.684Z,10.43
2019-03-24T09:39:26.772Z,10.46
2019-03-24T09:40:26.632Z,10.49
2019-03-24T09:41:26.705Z,10.54
2019-03-24T09:42:26.662Z,10.57
2019-03-24T09:43:26.633Z,10.61
2019-03-24T09:44:26.664Z,10.68
2019-03-24T09:45:26.671Z,10.71
2019-03-24T09:46:26.700Z,10.76
2019-03-24T09:47:26.624Z,10.78
2019-03-24T09:48:26.712Z,10.74
2019-03-24T09:49:26.604Z,10.7
2019-03-24T09:50:26.843Z,10.78
2019-03-24T09:51:26.727Z,10.83
2019-03-24T09:52:26.636Z,10.87
2019-03-24T09:53:26.631Z,10.93
2019-03-24T09:54:26.627Z,11.05
2019-03-24T09:55:26.586Z,11.11
2019-03-24T09:56:27.614Z,11.15
2019-03-24T09:57:26.595Z,11.17
2019-03-24T09:58:26.592Z,11.19
2019-03-24T09:59:26.653Z,11.2
2019-03-24T10:00:26.628Z,11.22
2019-03-24T10:01:26.760Z,11.25
2019-03-24T10:02:26.617Z,11.29
2019-03-24T10:03:26.586Z,11.26
2019-03-24T10:04:27.579Z,11.26
2019-03-24T10:05:26.614Z,11.34
2019-03-24T10:06:26.612Z,11.43
2019-03-24T10:07:26.673Z,11.5
2019-03-24T10:08:26.600Z,11.51
2019-03-24T10:09:26.610Z,11.54
2019-03-24T10:10:26.736Z,11.53
2019-03-24T10:11:26.708Z,11.56
2019-03-24T10:12:26.625Z,11.59
2019-03-24T10:13:26.641Z,11.62
2019-03-24T10:14:26.644Z,11.68
2019-03-24T10:15:26.572Z,11.68
2019-03-24T10:16:26.622Z,11.73
2019-03-24T10:17:26.742Z,11.79
2019-03-24T10:18:27.775Z,11.82
2019-03-24T10:19:26.710Z,11.88
2019-03-24T10:20:26.672Z,11.92
2019-03-24T10:21:26.560Z,11.93
2019-03-24T10:22:26.537Z,11.98
2019-03-24T10:23:26.658Z,12.02
2019-03-24T10:24:26.531Z,12.04
2019-03-24T10:25:26.635Z,12.09
2019-03-24T10:26:27.165Z,12.11
2019-03-24T10:27:26.568Z,12.13
2019-03-24T10:28:26.543Z,12.17
2019-03-24T10:29:26.569Z,12.22
2019-03-24T10:30:26.617Z,12.23
2019-03-24T10:31:26.545Z,12.3
2019-03-24T10:32:26.585Z,12.36
2019-03-24T10:33:26.540Z,12.4
2019-03-24T10:34:26.650Z,12.43
2019-03-24T10:35:26.676Z,12.48
2019-03-24T10:36:27.663Z,12.47
2019-03-24T10:37:26.532Z,12.52
2019-03-24T10:38:26.553Z,12.56
2019-03-24T10:39:26.713Z,12.6
2019-03-24T10:40:29.415Z,12.6
2019-03-24T10:41:26.615Z,12.47
2019-03-24T10:42:26.650Z,12.4
2019-03-24T10:43:26.519Z,12.41
2019-03-24T10:44:26.637Z,12.53
2019-03-24T10:45:26.518Z,12.51
2019-03-24T10:46:26.534Z,12.55
2019-03-24T10:47:26.528Z,12.53
2019-03-24T10:48:34.202Z,12.54
2019-03-24T10:49:26.594Z,12.61
2019-03-24T10:50:26.574Z,12.67
2019-03-24T10:51:26.592Z,12.69
2019-03-24T10:52:26.531Z,12.71
2019-03-24T10:53:26.587Z,12.79
2019-03-24T10:54:26.777Z,12.86
2019-03-24T10:55:26.532Z,12.95
2019-03-24T10:56:26.540Z,12.99
2019-03-24T10:57:26.514Z,13
2019-03-24T10:58:26.748Z,13.07
2019-03-24T10:59:26.495Z,13.12
2019-03-24T11:00:26.547Z,13.06
2019-03-24T11:01:26.534Z,13.07
2019-03-24T11:02:26.530Z,13.06
2019-03-24T11:03:26.551Z,13.01
2019-03-24T11:04:26.657Z,13.07
2019-03-24T11:05:26.498Z,13.08
2019-03-24T11:06:26.633Z,13.09
2019-03-24T11:07:26.521Z,13.2
2019-03-24T11:08:26.635Z,13.16
2019-03-24T11:09:26.596Z,13.08
2019-03-24T11:10:26.694Z,13.09
2019-03-24T11:11:26.717Z,13.03
2019-03-24T11:12:26.697Z,13.06
2019-03-24T11:13:26.711Z,13.18
2019-03-24T11:14:26.547Z,13.18
2019-03-24T11:15:27.541Z,13.31
2019-03-24T11:16:26.487Z,13.23
2019-03-24T11:17:26.532Z,13.16
2019-03-24T11:18:26.471Z,13.29
2019-03-24T11:19:36.441Z,13.36
2019-03-24T11:20:26.467Z,13.42
2019-03-24T11:21:26.838Z,13.4
2019-03-24T11:22:26.484Z,13.55
2019-03-24T11:23:26.521Z,13.39
2019-03-24T11:24:26.474Z,13.46
2019-03-24T11:25:26.487Z,13.43
2019-03-24T11:26:26.550Z,13.49
2019-03-24T11:27:26.462Z,13.55
2019-03-24T11:28:26.479Z,13.65
2019-03-24T11:29:26.459Z,13.81
2019-03-24T11:30:26.551Z,13.76
2019-03-24T11:31:26.494Z,13.74
2019-03-24T11:32:26.438Z,13.73
2019-03-24T11:33:26.486Z,13.76
2019-03-24T11:34:26.591Z,13.72
2019-03-24T11:35:27.346Z,13.8
2019-03-24T11:36:26.492Z,13.89
2019-03-24T11:37:28.464Z,13.93
2019-03-24T11:38:26.562Z,13.99
2019-03-24T11:39:27.737Z,13.98
2019-03-24T11:40:26.561Z,13.93
2019-03-24T11:41:26.631Z,13.89
2019-03-24T11:42:26.475Z,13.99
2019-03-24T11:43:26.514Z,14.06
2019-03-24T11:44:26.493Z,13.89
2019-03-24T11:45:26.493Z,13.96
2019-03-24T11:46:26.467Z,13.9
2019-03-24T11:47:27.382Z,13.95
2019-03-24T11:48:26.518Z,13.83
2019-03-24T11:49:26.499Z,13.87
2019-03-24T11:50:26.505Z,13.98
2019-03-24T11:51:26.452Z,13.78
2019-03-24T11:52:26.475Z,13.8
2019-03-24T11:53:26.458Z,13.83
2019-03-24T11:54:26.476Z,13.92
2019-03-24T11:55:26.493Z,14
2019-03-24T11:56:26.419Z,14.02
2019-03-24T11:57:26.585Z,14.07
2019-03-24T11:58:26.620Z,14.03
2019-03-24T11:59:26.469Z,13.96
2019-03-24T12:00:27.541Z,14.03
2019-03-24T12:01:26.552Z,14.17
2019-03-24T12:02:26.487Z,14.28
2019-03-24T12:03:26.455Z,14.37
2019-03-24T12:04:26.453Z,14.42
2019-03-24T12:05:26.459Z,14.33
2019-03-24T12:06:26.494Z,14.33
2019-03-24T12:07:26.416Z,14.41
2019-03-24T12:08:26.429Z,14.46
2019-03-24T12:09:26.438Z,14.33
2019-03-24T12:10:26.451Z,14.43
2019-03-24T12:11:26.406Z,14.47
2019-03-24T12:12:26.461Z,14.44
2019-03-24T12:13:26.461Z,14.42
2019-03-24T12:14:26.429Z,14.45
2019-03-24T12:15:26.434Z,14.47
2019-03-24T12:16:26.432Z,14.54
2019-03-24T12:17:26.488Z,14.6
2019-03-24T12:18:27.548Z,14.65
2019-03-24T12:19:26.765Z,14.65
2019-03-24T12:20:26.848Z,14.66
2019-03-24T12:21:26.419Z,14.7
2019-03-24T12:22:26.397Z,14.57
2019-03-24T12:23:26.395Z,14.55
2019-03-24T12:24:26.490Z,14.65
2019-03-24T12:25:28.776Z,14.73
2019-03-24T12:26:26.476Z,14.72
2019-03-24T12:27:26.451Z,14.78
2019-03-24T12:28:26.429Z,14.89
2019-03-24T12:29:26.425Z,14.9
2019-03-24T12:30:26.406Z,14.95
2019-03-24T12:31:26.467Z,14.85
2019-03-24T12:32:26.458Z,14.89
2019-03-24T12:33:26.622Z,15.01
2019-03-24T12:34:26.482Z,15.04
2019-03-24T12:35:26.511Z,14.98
2019-03-24T12:36:26.490Z,14.93
2019-03-24T12:37:26.469Z,14.88
2019-03-24T12:38:26.423Z,14.92
2019-03-24T12:39:26.443Z,14.98
2019-03-24T12:40:27.385Z,15.05
2019-03-24T12:41:26.502Z,15.15
2019-03-24T12:42:26.639Z,15.07
2019-03-24T12:43:26.417Z,15.19
2019-03-24T12:44:26.517Z,15.13
2019-03-24T12:45:26.458Z,15.12
2019-03-24T12:46:27.540Z,15.28
2019-03-24T12:47:27.358Z,15.18
2019-03-24T12:48:27.063Z,15.25
2019-03-24T12:49:27.588Z,15.29
2019-03-24T12:50:32.161Z,15.24
2019-03-24T12:51:27.815Z,15.21
2019-03-24T12:52:26.482Z,15.18
2019-03-24T12:53:26.340Z,15.15
2019-03-24T12:54:26.382Z,15.23
2019-03-24T12:55:26.443Z,15.32
2019-03-24T12:56:26.463Z,15.33
2019-03-24T12:57:26.384Z,15.22
2019-03-24T12:58:27.279Z,15.22
2019-03-24T12:59:26.427Z,15.25
2019-03-24T13:00:26.467Z,15.37
2019-03-24T13:01:27.355Z,15.39
2019-03-24T13:02:26.395Z,15.38
2019-03-24T13:03:26.432Z,15.43
2019-03-24T13:04:26.382Z,15.49
2019-03-24T13:05:26.463Z,15.52
2019-03-24T13:06:26.366Z,15.53
2019-03-24T13:07:26.394Z,15.59
2019-03-24T13:08:26.365Z,15.61
2019-03-24T13:09:26.354Z,15.46
2019-03-24T13:10:26.485Z,15.47
2019-03-24T13:11:26.393Z,15.43
2019-03-24T13:12:26.330Z,15.41
2019-03-24T13:13:26.446Z,15.35